Time;durP1;ratioP1;P1;durP2;ratioP2;P2;SDS_P1;SDS_P2;PMS_P1;PMS_P2;Temp;Humidity;BMP_temperature;BMP_pressure;BME280_temperature;BME280_humidity;BME280_pressure;Samples;Min_cycle;Max_cycle;Signal;HPM_P1;HPM_P2
2021/09/02 00:00:34;;;;;;;7.40;4.68;;;;;;;;;;5097945;28;20190;-48
2021/09/02 00:03:00;;;;;;;4.97;4.40;;;;;;;;;;5096603;28;20197;-48
2021/09/02 00:05:26;;;;;;;4.55;4.15;;;;;;;;;;5083313;28;20538;-48
2021/09/02 00:07:52;;;;;;;6.82;4.72;;;;;;;;;;5077188;28;20166;-48
2021/09/02 00:10:18;;;;;;;5.82;4.72;;;;;;;;;;5082264;28;20189;-48
2021/09/02 00:12:44;;;;;;;5.60;4.60;;;;;;;;;;5097244;28;20256;-48
2021/09/02 00:15:10;;;;;;;6.25;4.90;;;;;;;;;;5097881;28;20265;-48
2021/09/02 00:17:36;;;;;;;5.40;4.90;;;;;;;;;;5096904;28;20189;-48
2021/09/02 00:20:04;;;;;;;5.97;4.57;;;;;;;;;;5097749;28;20193;-48
2021/09/02 00:22:30;;;;;;;4.97;4.47;;;;;;;;;;5097412;28;20216;-48
2021/09/02 00:24:56;;;;;;;5.45;4.18;;;;;;;;;;5096175;28;20507;-48
2021/09/02 00:27:22;;;;;;;5.78;4.90;;;;;;;;;;5097134;28;20174;-48
2021/09/02 00:29:48;;;;;;;4.53;4.10;;;;;;;;;;5096662;28;20201;-48
2021/09/02 00:32:15;;;;;;;5.82;4.60;;;;;;;;;;5097015;28;20545;-48
2021/09/02 00:34:41;;;;;;;5.72;4.32;;;;;;;;;;5097197;28;20177;-48
2021/09/02 00:37:07;;;;;;;5.18;4.68;;;;;;;;;;5096461;28;20166;-48
2021/09/02 00:39:33;;;;;;;4.68;4.28;;;;;;;;;;5101513;28;20535;-48
2021/09/02 00:41:59;;;;;;;4.65;4.18;;;;;;;;;;5100416;28;20194;-48
2021/09/02 00:44:34;;;;;;;5.63;4.30;;;;;;;;;;5089695;28;20463;-48
2021/09/02 00:47:01;;;;;;;5.38;4.88;;;;;;;;;;5096315;28;20200;-48
2021/09/02 00:49:27;;;;;;;5.10;4.57;;;;;;;;;;5077082;28;20225;-48
2021/09/02 00:51:53;;;;;;;9.05;4.95;;;;;;;;;;5076757;28;20170;-48
2021/09/02 00:54:19;;;;;;;4.63;4.22;;;;;;;;;;5088628;28;20193;-48
2021/09/02 00:56:45;;;;;;;5.50;4.53;;;;;;;;;;5096846;28;20181;-48
2021/09/02 00:59:11;;;;;;;5.78;4.45;;;;;;;;;;5095481;28;20178;-50
2021/09/02 01:01:37;;;;;;;5.30;4.65;;;;;;;;;;5096708;28;20193;-48
2021/09/02 01:04:04;;;;;;;7.45;4.57;;;;;;;;;;5095433;28;20512;-48
2021/09/02 01:06:30;;;;;;;5.05;4.53;;;;;;;;;;5095936;28;20220;-48
2021/09/02 01:08:56;;;;;;;5.22;4.38;;;;;;;;;;5083037;28;20202;-48
2021/09/02 01:11:23;;;;;;;6.60;4.47;;;;;;;;;;5096865;28;20615;-48
2021/09/02 01:13:49;;;;;;;8.57;4.97;;;;;;;;;;5090135;28;20174;-48
2021/09/02 01:16:15;;;;;;;6.35;4.72;;;;;;;;;;5096758;28;20541;-48
2021/09/02 01:18:41;;;;;;;6.97;4.75;;;;;;;;;;5095317;28;20186;-48
2021/09/02 01:21:07;;;;;;;8.00;4.85;;;;;;;;;;5096102;28;20177;-48
2021/09/02 01:23:39;;;;;;;7.55;5.10;;;;;;;;;;5096432;28;20640;-48
2021/09/02 01:26:15;;;;;;;6.13;5.00;;;;;;;;;;5096277;28;20233;-48
2021/09/02 01:28:41;;;;;;;7.68;4.97;;;;;;;;;;5095378;28;20208;-48
2021/09/02 01:31:07;;;;;;;5.07;4.57;;;;;;;;;;5096544;28;20196;-48
2021/09/02 01:33:33;;;;;;;5.38;4.47;;;;;;;;;;5095997;28;20173;-48
2021/09/02 01:35:59;;;;;;;5.47;4.65;;;;;;;;;;5095711;28;20173;-48
2021/09/02 01:38:25;;;;;;;6.45;4.45;;;;;;;;;;5099410;28;20220;-48
2021/09/02 01:40:51;;;;;;;7.30;5.00;;;;;;;;;;5106946;28;20225;-48
2021/09/02 01:43:18;;;;;;;5.80;4.80;;;;;;;;;;5077672;28;20230;-47
2021/09/02 01:45:44;;;;;;;7.22;5.05;;;;;;;;;;5075894;28;20163;-48
2021/09/02 01:48:10;;;;;;;7.45;4.88;;;;;;;;;;5090444;28;20181;-48
2021/09/02 01:50:40;;;;;;;6.35;4.85;;;;;;;;;;5096129;28;20200;-48
2021/09/02 01:53:07;;;;;;;6.60;4.97;;;;;;;;;;5092166;28;20573;-48
2021/09/02 01:55:33;;;;;;;6.85;4.78;;;;;;;;;;5095342;28;20174;-47
2021/09/02 01:57:59;;;;;;;6.28;5.22;;;;;;;;;;5095252;28;20555;-47
2021/09/02 02:00:25;;;;;;;7.07;4.60;;;;;;;;;;5095853;28;20185;-48
2021/09/02 02:02:52;;;;;;;6.47;5.25;;;;;;;;;;5095185;28;20170;-48
2021/09/02 02:05:18;;;;;;;6.30;4.80;;;;;;;;;;5095230;28;20181;-48
2021/09/02 02:07:44;;;;;;;6.05;4.63;;;;;;;;;;5094533;28;20186;-48
2021/09/02 02:10:11;;;;;;;6.13;4.93;;;;;;;;;;5095468;28;20642;-48
2021/09/02 02:12:37;;;;;;;6.93;5.45;;;;;;;;;;5095429;28;20556;-48
2021/09/02 02:15:04;;;;;;;6.05;4.90;;;;;;;;;;5095321;28;20185;-48
2021/09/02 02:17:30;;;;;;;5.32;4.68;;;;;;;;;;5094401;28;20180;-48
2021/09/02 02:19:56;;;;;;;5.72;5.00;;;;;;;;;;5095430;28;20170;-48
2021/09/02 02:22:22;;;;;;;7.70;4.95;;;;;;;;;;5094987;28;20247;-48
2021/09/02 02:24:48;;;;;;;7.75;4.80;;;;;;;;;;5089652;28;20289;-48
2021/09/02 02:27:14;;;;;;;6.72;5.07;;;;;;;;;;5092280;28;20195;-48
2021/09/02 02:29:40;;;;;;;6.03;4.90;;;;;;;;;;5091006;28;20208;-46
2021/09/02 02:32:06;;;;;;;6.68;4.30;;;;;;;;;;5075651;28;20182;-45
2021/09/02 02:34:32;;;;;;;6.07;4.32;;;;;;;;;;5075015;28;20174;-45
2021/09/02 02:36:58;;;;;;;6.50;4.80;;;;;;;;;;5091904;28;20181;-45
2021/09/02 02:39:25;;;;;;;5.47;4.72;;;;;;;;;;5103264;28;20192;-48
2021/09/02 02:41:50;;;;;;;5.55;4.47;;;;;;;;;;5110823;28;20193;-46
2021/09/02 02:44:17;;;;;;;6.47;4.85;;;;;;;;;;5094975;28;20483;-46
2021/09/02 02:46:42;;;;;;;6.13;5.03;;;;;;;;;;5093822;28;20184;-46
2021/09/02 02:49:08;;;;;;;6.85;4.80;;;;;;;;;;5094333;28;20300;-46
2021/09/02 02:51:35;;;;;;;6.80;5.07;;;;;;;;;;5095018;28;20169;-46
2021/09/02 02:54:01;;;;;;;6.40;4.38;;;;;;;;;;5075400;28;20237;-46
2021/09/02 02:56:27;;;;;;;4.88;4.28;;;;;;;;;;5090675;28;20185;-46
2021/09/02 02:58:53;;;;;;;5.13;4.63;;;;;;;;;;5093665;28;20178;-46
2021/09/02 03:01:19;;;;;;;5.63;4.50;;;;;;;;;;5094582;28;20714;-47
2021/09/02 03:03:45;;;;;;;5.53;4.63;;;;;;;;;;5076944;28;20220;-46
2021/09/02 03:06:14;;;;;;;4.90;4.43;;;;;;;;;;5074483;28;20197;-46
2021/09/02 03:08:41;;;;;;;5.00;4.40;;;;;;;;;;5087542;28;20456;-46
2021/09/02 03:11:07;;;;;;;5.15;4.65;;;;;;;;;;5094617;28;20169;-46
2021/09/02 03:13:33;;;;;;;7.47;4.72;;;;;;;;;;5093498;28;20181;-46
2021/09/02 03:15:59;;;;;;;5.00;4.30;;;;;;;;;;5094652;28;20495;-45
2021/09/02 03:18:25;;;;;;;5.35;4.80;;;;;;;;;;5090113;28;20213;-46
2021/09/02 03:20:51;;;;;;;4.97;4.32;;;;;;;;;;5090022;28;20258;-46
2021/09/02 03:23:17;;;;;;;5.60;4.47;;;;;;;;;;5094605;28;20166;-46
2021/09/02 03:25:43;;;;;;;5.15;4.30;;;;;;;;;;5094633;28;20186;-48
2021/09/02 03:28:09;;;;;;;6.13;4.65;;;;;;;;;;5083510;28;20672;-48
2021/09/02 03:30:35;;;;;;;5.45;4.75;;;;;;;;;;5074291;28;20294;-48
2021/09/02 03:33:01;;;;;;;6.30;4.75;;;;;;;;;;5078411;28;20170;-48
2021/09/02 03:35:27;;;;;;;5.00;4.40;;;;;;;;;;5076961;28;20541;-46
2021/09/02 03:37:53;;;;;;;5.47;4.28;;;;;;;;;;5093087;28;20196;-46
2021/09/02 03:40:19;;;;;;;5.40;4.38;;;;;;;;;;5104799;28;20205;-46
2021/09/02 03:42:45;;;;;;;5.03;4.45;;;;;;;;;;5093312;28;20232;-46
2021/09/02 03:45:11;;;;;;;6.28;4.35;;;;;;;;;;5087220;28;20178;-46
2021/09/02 03:47:37;;;;;;;7.43;4.68;;;;;;;;;;5074627;28;20186;-46
2021/09/02 03:50:04;;;;;;;5.15;4.45;;;;;;;;;;5088500;28;20725;-47
2021/09/02 03:52:30;;;;;;;6.35;4.75;;;;;;;;;;5089915;28;20623;-46
2021/09/02 03:54:56;;;;;;;4.80;4.18;;;;;;;;;;5079425;28;20223;-46
2021/09/02 03:57:22;;;;;;;5.13;4.60;;;;;;;;;;5092650;28;20600;-46
2021/09/02 03:59:48;;;;;;;4.78;4.28;;;;;;;;;;5094211;28;20166;-46
2021/09/02 04:02:14;;;;;;;5.15;4.60;;;;;;;;;;5093770;28;20204;-46
2021/09/02 04:04:40;;;;;;;7.00;4.50;;;;;;;;;;5095134;28;20162;-46
2021/09/02 04:07:06;;;;;;;6.65;4.93;;;;;;;;;;5097434;28;20471;-46
2021/09/02 04:09:32;;;;;;;7.03;4.63;;;;;;;;;;5094464;28;20190;-46
2021/09/02 04:11:58;;;;;;;7.10;4.82;;;;;;;;;;5077284;28;20166;-45
2021/09/02 04:14:24;;;;;;;4.88;4.40;;;;;;;;;;5092279;28;20181;-46
2021/09/02 04:16:50;;;;;;;7.00;4.32;;;;;;;;;;5096853;28;20185;-46
2021/09/02 04:19:16;;;;;;;6.82;4.78;;;;;;;;;;5096538;28;20166;-46
2021/09/02 04:21:42;;;;;;;9.85;4.50;;;;;;;;;;5097738;28;20564;-46
2021/09/02 04:24:09;;;;;;;9.32;5.65;;;;;;;;;;5094593;28;20281;-46
2021/09/02 04:26:35;;;;;;;13.45;5.43;;;;;;;;;;5097427;28;20166;-46
2021/09/02 04:29:00;;;;;;;9.68;5.45;;;;;;;;;;5091962;28;20520;-45
2021/09/02 04:31:26;;;;;;;11.52;4.70;;;;;;;;;;5097426;28;20213;-47
2021/09/02 04:33:53;;;;;;;6.75;5.30;;;;;;;;;;5097398;28;20215;-47
2021/09/02 04:36:19;;;;;;;7.20;4.82;;;;;;;;;;5096868;28;20176;-45
2021/09/02 04:38:45;;;;;;;10.10;4.90;;;;;;;;;;5097963;28;20273;-45
2021/09/02 04:41:11;;;;;;;5.85;4.90;;;;;;;;;;5105396;28;20455;-46
2021/09/02 04:43:37;;;;;;;8.50;4.80;;;;;;;;;;5077126;28;20162;-46
2021/09/02 04:46:03;;;;;;;8.05;4.72;;;;;;;;;;5087542;28;20695;-45
2021/09/02 04:48:29;;;;;;;7.28;4.47;;;;;;;;;;5094908;28;20173;-46
2021/09/02 04:50:55;;;;;;;6.72;4.90;;;;;;;;;;5096801;28;20207;-46
2021/09/02 04:53:21;;;;;;;7.50;4.80;;;;;;;;;;5086293;28;20186;-45
2021/09/02 04:55:47;;;;;;;6.25;5.05;;;;;;;;;;5076500;28;20580;-46
2021/09/02 04:58:14;;;;;;;10.23;5.00;;;;;;;;;;5086334;28;20260;-46
2021/09/02 05:00:40;;;;;;;8.40;4.70;;;;;;;;;;5096631;28;20204;-46
2021/09/02 05:03:07;;;;;;;4.78;4.38;;;;;;;;;;5088515;28;20220;-45
2021/09/02 05:05:33;;;;;;;9.23;4.60;;;;;;;;;;5087632;28;20189;-45
2021/09/02 05:07:59;;;;;;;5.30;4.70;;;;;;;;;;5092622;28;20178;-46
2021/09/02 05:10:25;;;;;;;6.40;4.60;;;;;;;;;;5096046;28;20306;-46
2021/09/02 05:12:51;;;;;;;10.68;5.18;;;;;;;;;;5086106;28;20176;-46
2021/09/02 05:15:17;;;;;;;7.57;4.93;;;;;;;;;;5095736;28;20199;-46
2021/09/02 05:17:44;;;;;;;6.30;5.10;;;;;;;;;;5094703;28;20185;-46
2021/09/02 05:20:11;;;;;;;7.00;5.00;;;;;;;;;;5096287;28;20182;-45
2021/09/02 05:22:37;;;;;;;7.15;4.75;;;;;;;;;;5096202;28;20216;-46
2021/09/02 05:25:03;;;;;;;5.38;4.68;;;;;;;;;;5091735;28;20178;-46
2021/09/02 05:27:29;;;;;;;6.25;4.75;;;;;;;;;;5095823;28;20260;-46
2021/09/02 05:29:55;;;;;;;6.90;4.85;;;;;;;;;;5096165;28;20321;-46
2021/09/02 05:32:21;;;;;;;7.05;5.25;;;;;;;;;;5096247;28;20604;-46
2021/09/02 05:34:47;;;;;;;6.05;4.70;;;;;;;;;;5095733;28;20224;-46
2021/09/02 05:37:13;;;;;;;6.35;5.10;;;;;;;;;;5094993;28;20564;-46
2021/09/02 05:39:39;;;;;;;6.50;4.55;;;;;;;;;;5102986;28;20199;-46
2021/09/02 05:42:05;;;;;;;6.60;4.65;;;;;;;;;;5112522;28;20200;-46
2021/09/02 05:44:31;;;;;;;6.38;4.90;;;;;;;;;;5084331;28;20244;-45
2021/09/02 05:46:57;;;;;;;6.72;5.03;;;;;;;;;;5081075;28;20170;-46
2021/09/02 05:49:23;;;;;;;8.13;5.13;;;;;;;;;;5077640;28;20201;-46
2021/09/02 05:51:49;;;;;;;6.68;5.20;;;;;;;;;;5085799;28;20169;-45
2021/09/02 05:54:16;;;;;;;6.40;5.38;;;;;;;;;;5094860;28;20235;-45
2021/09/02 05:56:42;;;;;;;6.93;5.00;;;;;;;;;;5095827;28;20437;-45
2021/09/02 05:59:08;;;;;;;6.40;5.38;;;;;;;;;;5076672;28;20178;-45
2021/09/02 06:01:34;;;;;;;9.32;5.80;;;;;;;;;;5084522;28;20733;-45
2021/09/02 06:04:00;;;;;;;6.75;4.80;;;;;;;;;;5095769;28;20184;-45
2021/09/02 06:06:26;;;;;;;6.85;4.90;;;;;;;;;;5095310;28;20228;-46
2021/09/02 06:08:52;;;;;;;6.05;5.45;;;;;;;;;;5078975;28;20202;-46
2021/09/02 06:11:18;;;;;;;7.90;5.45;;;;;;;;;;5075118;28;20577;-46
2021/09/02 06:13:44;;;;;;;7.57;5.55;;;;;;;;;;5086554;28;20171;-45
2021/09/02 06:16:10;;;;;;;6.18;5.38;;;;;;;;;;5089409;28;20174;-45
2021/09/02 06:18:36;;;;;;;6.47;5.50;;;;;;;;;;5094769;28;20188;-46
2021/09/02 06:21:02;;;;;;;8.27;6.80;;;;;;;;;;5094820;28;20441;-46
2021/09/02 06:23:28;;;;;;;10.88;7.38;;;;;;;;;;5095224;28;20261;-45
2021/09/02 06:25:54;;;;;;;10.32;7.00;;;;;;;;;;5095174;28;20223;-46
2021/09/02 06:28:20;;;;;;;9.40;7.65;;;;;;;;;;5094769;28;20429;-46
2021/09/02 06:30:46;;;;;;;10.43;6.82;;;;;;;;;;5094768;28;20215;-45
2021/09/02 06:33:12;;;;;;;7.20;6.25;;;;;;;;;;5090350;28;20162;-45
2021/09/02 06:35:39;;;;;;;7.60;6.20;;;;;;;;;;5093288;28;20169;-45
2021/09/02 06:38:05;;;;;;;7.47;6.45;;;;;;;;;;5093533;28;20869;-46
2021/09/02 06:40:32;;;;;;;8.52;6.32;;;;;;;;;;5106749;28;20554;-46
2021/09/02 06:42:58;;;;;;;10.57;6.03;;;;;;;;;;5095491;28;20192;-46
2021/09/02 06:45:24;;;;;;;7.43;6.38;;;;;;;;;;5094847;28;20523;-46
2021/09/02 06:47:50;;;;;;;11.85;7.40;;;;;;;;;;5090049;28;20184;-46
2021/09/02 06:50:15;;;;;;;7.38;6.60;;;;;;;;;;5094266;28;20214;-46
2021/09/02 06:52:42;;;;;;;8.45;6.85;;;;;;;;;;5094004;28;20185;-46
2021/09/02 06:55:08;;;;;;;11.85;7.93;;;;;;;;;;5094838;28;20219;-45
2021/09/02 06:57:35;;;;;;;12.13;7.97;;;;;;;;;;5093939;28;20554;-45
2021/09/02 07:00:01;;;;;;;9.68;7.50;;;;;;;;;;5093775;28;20568;-45
2021/09/02 07:02:27;;;;;;;9.90;7.68;;;;;;;;;;5089762;28;20230;-46
2021/09/02 07:04:53;;;;;;;10.75;7.85;;;;;;;;;;5077906;28;20295;-46
2021/09/02 07:07:19;;;;;;;13.25;8.43;;;;;;;;;;5072860;28;20265;-46
2021/09/02 07:09:45;;;;;;;13.45;7.45;;;;;;;;;;5074333;28;20343;-46
2021/09/02 07:12:11;;;;;;;12.52;8.13;;;;;;;;;;5094160;28;20245;-46
2021/09/02 07:14:37;;;;;;;11.32;8.00;;;;;;;;;;5080665;28;20466;-46
2021/09/02 07:17:05;;;;;;;12.35;8.05;;;;;;;;;;5082312;28;20166;-46
2021/09/02 07:19:31;;;;;;;9.38;7.78;;;;;;;;;;5094272;28;20170;-45
2021/09/02 07:21:57;;;;;;;11.95;8.60;;;;;;;;;;5093523;28;20178;-46
2021/09/02 07:24:23;;;;;;;15.20;8.05;;;;;;;;;;5094332;28;20173;-46
2021/09/02 07:26:49;;;;;;;11.60;8.00;;;;;;;;;;5094624;28;20249;-46
2021/09/02 07:29:15;;;;;;;13.10;8.05;;;;;;;;;;5079052;28;20587;-46
2021/09/02 07:31:41;;;;;;;10.93;8.23;;;;;;;;;;5074521;28;20584;-46
2021/09/02 07:34:07;;;;;;;17.00;8.65;;;;;;;;;;5073892;28;20175;-45
2021/09/02 07:36:34;;;;;;;10.35;7.70;;;;;;;;;;5074131;28;20170;-45
2021/09/02 07:39:00;;;;;;;12.52;7.60;;;;;;;;;;5099144;28;20181;-46
2021/09/02 07:41:26;;;;;;;8.55;6.18;;;;;;;;;;5110529;28;20203;-46
2021/09/02 07:43:52;;;;;;;9.00;6.15;;;;;;;;;;5102434;28;20440;-46
2021/09/02 07:46:18;;;;;;;9.10;6.63;;;;;;;;;;5098374;28;20216;-46
2021/09/02 07:48:47;;;;;;;9.13;6.80;;;;;;;;;;5097211;28;20181;-46
2021/09/02 07:51:14;;;;;;;12.00;7.85;;;;;;;;;;5098333;28;20182;-46
2021/09/02 07:53:40;;;;;;;17.48;8.02;;;;;;;;;;5096535;28;20594;-46
2021/09/02 07:56:06;;;;;;;11.65;8.52;;;;;;;;;;5097531;28;20257;-46
2021/09/02 07:58:32;;;;;;;12.00;8.18;;;;;;;;;;5078428;28;20461;-46
2021/09/02 08:00:58;;;;;;;11.20;8.80;;;;;;;;;;5098144;28;20181;-46
2021/09/02 08:03:24;;;;;;;13.77;8.18;;;;;;;;;;5097473;28;20184;-46
2021/09/02 08:05:51;;;;;;;11.65;8.43;;;;;;;;;;5097813;28;20174;-46
2021/09/02 08:08:17;;;;;;;11.98;8.55;;;;;;;;;;5096874;28;20181;-46
2021/09/02 08:10:44;;;;;;;11.98;8.60;;;;;;;;;;5097566;28;20220;-46
2021/09/02 08:13:10;;;;;;;11.13;7.55;;;;;;;;;;5087181;28;20224;-46
2021/09/02 08:15:36;;;;;;;11.55;7.65;;;;;;;;;;5097848;28;20189;-46
2021/09/02 08:18:02;;;;;;;11.10;7.63;;;;;;;;;;5096866;28;20173;-45
2021/09/02 08:20:28;;;;;;;11.02;8.02;;;;;;;;;;5097607;28;20556;-46
2021/09/02 08:22:54;;;;;;;11.18;8.27;;;;;;;;;;5089412;28;20240;-46
2021/09/02 08:25:20;;;;;;;12.30;8.18;;;;;;;;;;5092581;28;20188;-46
2021/09/02 08:27:47;;;;;;;10.88;8.05;;;;;;;;;;5096317;28;20239;-45
2021/09/02 08:30:14;;;;;;;11.00;7.38;;;;;;;;;;5097149;28;20198;-46
2021/09/02 08:32:46;;;;;;;10.85;7.95;;;;;;;;;;5097066;28;20230;-46
2021/09/02 08:35:13;;;;;;;16.10;8.23;;;;;;;;;;5097263;28;20170;-46
2021/09/02 08:37:39;;;;;;;10.70;7.70;;;;;;;;;;5096584;28;20190;-46
2021/09/02 08:40:05;;;;;;;10.70;7.72;;;;;;;;;;5088628;28;20201;-46
2021/09/02 08:42:31;;;;;;;10.43;7.78;;;;;;;;;;5094886;28;20209;-46
2021/09/02 08:44:57;;;;;;;9.80;7.00;;;;;;;;;;5084161;28;20182;-46
2021/09/02 08:47:23;;;;;;;13.07;7.10;;;;;;;;;;5077373;28;20182;-46
2021/09/02 08:49:49;;;;;;;10.93;6.82;;;;;;;;;;5095010;28;20201;-45
2021/09/02 08:52:15;;;;;;;9.00;7.53;;;;;;;;;;5090647;28;20569;-46
2021/09/02 08:54:42;;;;;;;8.90;6.70;;;;;;;;;;5088148;28;20178;-46
2021/09/02 08:57:08;;;;;;;8.23;6.28;;;;;;;;;;5077412;28;20170;-46
2021/09/02 08:59:33;;;;;;;9.05;7.35;;;;;;;;;;5080048;28;20173;-46
2021/09/02 09:01:59;;;;;;;10.10;6.93;;;;;;;;;;5095785;28;20234;-46
2021/09/02 09:04:33;;;;;;;9.50;6.35;;;;;;;;;;5093735;28;20189;-46
2021/09/02 09:06:59;;;;;;;10.60;7.00;;;;;;;;;;5096141;28;20184;-46
2021/09/02 09:09:25;;;;;;;8.88;7.05;;;;;;;;;;5076313;28;20206;-46
2021/09/02 09:11:52;;;;;;;9.57;6.90;;;;;;;;;;5076316;28;20166;-46
2021/09/02 09:14:23;;;;;;;9.68;6.18;;;;;;;;;;5087725;28;20591;-46
2021/09/02 09:16:53;;;;;;;9.52;6.43;;;;;;;;;;5096338;28;20188;-46
2021/09/02 09:19:38;;;;;;;11.40;6.80;;;;;;;;;;5095612;28;20203;-45
2021/09/02 09:22:05;;;;;;;8.93;6.53;;;;;;;;;;5079731;28;20182;-46
2021/09/02 09:24:48;;;;;;;10.63;6.90;;;;;;;;;;5095853;28;20552;-46
2021/09/02 09:27:16;;;;;;;10.63;7.22;;;;;;;;;;5094619;28;20265;-46
2021/09/02 09:29:42;;;;;;;11.35;6.88;;;;;;;;;;5076437;28;20201;-46
2021/09/02 09:32:15;;;;;;;10.88;6.85;;;;;;;;;;5082050;28;20242;-46
2021/09/02 09:35:08;;;;;;;9.27;6.35;;;;;;;;;;5089455;28;20560;-47
2021/09/02 09:37:34;;;;;;;9.20;6.70;;;;;;;;;;5076893;28;20266;-46
2021/09/02 09:40:18;;;;;;;10.50;7.05;;;;;;;;;;5107050;28;20537;-46
2021/09/02 09:42:58;;;;;;;8.35;6.45;;;;;;;;;;5095426;28;20631;-45
2021/09/02 09:45:40;;;;;;;9.30;6.75;;;;;;;;;;5073797;28;20449;-46
2021/09/02 09:48:26;;;;;;;10.32;6.85;;;;;;;;;;5084203;28;20569;-46
2021/09/02 09:51:12;;;;;;;9.07;7.03;;;;;;;;;;5095448;28;20205;-46
2021/09/02 09:53:39;;;;;;;9.38;6.57;;;;;;;;;;5075829;28;20574;-46
2021/09/02 09:56:05;;;;;;;10.65;7.05;;;;;;;;;;5075406;28;20170;-46
2021/09/02 09:58:32;;;;;;;8.52;6.78;;;;;;;;;;5087616;28;20565;-46
2021/09/02 10:00:59;;;;;;;10.40;7.20;;;;;;;;;;5095724;28;20498;-46
2021/09/02 10:03:26;;;;;;;10.35;7.22;;;;;;;;;;5094575;28;20184;-46
2021/09/02 10:05:53;;;;;;;9.65;7.20;;;;;;;;;;5095239;28;20181;-46
2021/09/02 10:08:20;;;;;;;7.70;6.60;;;;;;;;;;5094577;28;20256;-46
2021/09/02 10:10:50;;;;;;;10.25;7.65;;;;;;;;;;5095185;28;20209;-47
2021/09/02 10:13:17;;;;;;;8.55;6.97;;;;;;;;;;5093373;28;20235;-46
2021/09/02 10:15:43;;;;;;;8.75;6.85;;;;;;;;;;5095408;28;20222;-46
2021/09/02 10:18:10;;;;;;;9.02;7.05;;;;;;;;;;5064041;28;20174;-46
2021/09/02 10:20:39;;;;;;;7.75;6.68;;;;;;;;;;5074924;28;20745;-46
2021/09/02 10:23:06;;;;;;;9.57;6.60;;;;;;;;;;5088617;28;20537;-46
2021/09/02 10:25:35;;;;;;;8.77;7.20;;;;;;;;;;5093410;28;20208;-46
2021/09/02 10:28:17;;;;;;;7.97;7.05;;;;;;;;;;5094154;28;20182;-46
2021/09/02 10:30:44;;;;;;;8.70;7.18;;;;;;;;;;5095110;28;20190;-46
2021/09/02 10:33:28;;;;;;;10.70;7.10;;;;;;;;;;5084276;28;20183;-46
2021/09/02 10:35:54;;;;;;;8.63;7.22;;;;;;;;;;5083396;28;20200;-46
2021/09/02 10:38:35;;;;;;;9.48;6.80;;;;;;;;;;5095924;28;20184;-46
2021/09/02 10:41:01;;;;;;;9.63;7.70;;;;;;;;;;5093894;28;20204;-46
2021/09/02 10:43:46;;;;;;;9.55;7.10;;;;;;;;;;5089325;28;20266;-46
2021/09/02 10:46:31;;;;;;;7.68;6.80;;;;;;;;;;5085678;28;20180;-46
2021/09/02 10:49:15;;;;;;;9.52;7.32;;;;;;;;;;5077209;28;20186;-46
2021/09/02 10:51:43;;;;;;;10.15;7.05;;;;;;;;;;5078799;28;20170;-46
2021/09/02 10:54:10;;;;;;;8.32;7.00;;;;;;;;;;5076058;28;20438;-46
2021/09/02 10:56:55;;;;;;;10.25;7.20;;;;;;;;;;5090054;28;20204;-46
2021/09/02 10:59:41;;;;;;;9.38;6.93;;;;;;;;;;5090997;28;20178;-46
2021/09/02 11:02:09;;;;;;;9.18;6.90;;;;;;;;;;5094113;28;20436;-46
2021/09/02 11:04:36;;;;;;;8.30;6.35;;;;;;;;;;5093625;28;20170;-46
2021/09/02 11:07:02;;;;;;;8.60;6.93;;;;;;;;;;5093130;28;20197;-46
2021/09/02 11:09:29;;;;;;;9.30;7.28;;;;;;;;;;5073867;28;20221;-46
2021/09/02 11:11:55;;;;;;;8.48;7.10;;;;;;;;;;5078363;28;20207;-46
2021/09/02 11:14:21;;;;;;;11.32;7.20;;;;;;;;;;5085274;28;20201;-46
2021/09/02 11:16:47;;;;;;;9.82;6.78;;;;;;;;;;5094554;28;20208;-46
2021/09/02 11:19:13;;;;;;;9.30;7.00;;;;;;;;;;5093571;28;20212;-46
2021/09/02 11:21:39;;;;;;;9.55;7.18;;;;;;;;;;5094379;28;20186;-47
2021/09/02 11:24:12;;;;;;;9.07;7.05;;;;;;;;;;5094247;28;20185;-46
2021/09/02 11:26:40;;;;;;;7.95;6.88;;;;;;;;;;5094549;28;20472;-46
2021/09/02 11:29:08;;;;;;;8.85;6.80;;;;;;;;;;5093370;28;20599;-46
2021/09/02 11:31:34;;;;;;;11.40;7.85;;;;;;;;;;5094216;28;20211;-46
2021/09/02 11:34:01;;;;;;;8.23;7.25;;;;;;;;;;5092582;28;20557;-46
2021/09/02 11:36:28;;;;;;;9.35;7.10;;;;;;;;;;5093987;28;20452;-46
2021/09/02 11:39:01;;;;;;;7.95;6.40;;;;;;;;;;5096662;28;20182;-47
2021/09/02 11:41:27;;;;;;;7.00;6.13;;;;;;;;;;5097998;28;20560;-46
2021/09/02 11:43:54;;;;;;;8.68;6.22;;;;;;;;;;5091055;28;20174;-46
2021/09/02 11:46:20;;;;;;;9.35;6.30;;;;;;;;;;5090934;28;20170;-46
2021/09/02 11:48:56;;;;;;;8.93;6.97;;;;;;;;;;5091602;28;20185;-46
2021/09/02 11:51:24;;;;;;;10.95;6.70;;;;;;;;;;5093527;28;20177;-46
2021/09/02 11:54:06;;;;;;;10.80;6.50;;;;;;;;;;5084708;28;20276;-46
2021/09/02 11:56:32;;;;;;;10.23;6.38;;;;;;;;;;5092429;28;20209;-46
2021/09/02 11:58:59;;;;;;;10.63;6.40;;;;;;;;;;5083510;28;20559;-46
2021/09/02 12:01:25;;;;;;;12.60;6.70;;;;;;;;;;5093378;28;20182;-46
2021/09/02 12:03:52;;;;;;;12.00;6.60;;;;;;;;;;5093381;28;20273;-46
2021/09/02 12:06:25;;;;;;;11.30;6.82;;;;;;;;;;5093563;28;20178;-46
2021/09/02 12:08:52;;;;;;;11.10;6.53;;;;;;;;;;5092004;28;20174;-46
2021/09/02 12:11:18;;;;;;;11.02;6.13;;;;;;;;;;5088926;28;20166;-46
2021/09/02 12:13:45;;;;;;;17.73;6.28;;;;;;;;;;5093360;28;20184;-46
2021/09/02 12:16:20;;;;;;;13.32;6.75;;;;;;;;;;5093926;28;20182;-46
2021/09/02 12:18:47;;;;;;;16.50;6.30;;;;;;;;;;5091750;28;20188;-46
2021/09/02 12:21:21;;;;;;;11.10;6.20;;;;;;;;;;5090228;28;20703;-46
2021/09/02 12:23:53;;;;;;;9.15;5.60;;;;;;;;;;5093084;28;20200;-47
2021/09/02 12:26:39;;;;;;;8.68;5.38;;;;;;;;;;5095157;28;20170;-46
2021/09/02 12:29:10;;;;;;;8.90;5.50;;;;;;;;;;5082700;28;20213;-47
2021/09/02 12:31:37;;;;;;;8.85;5.90;;;;;;;;;;5097144;28;20279;-46
2021/09/02 12:34:04;;;;;;;13.30;6.32;;;;;;;;;;5096096;28;20178;-47
2021/09/02 12:36:31;;;;;;;7.53;6.07;;;;;;;;;;5096710;28;20178;-47
2021/09/02 12:39:15;;;;;;;110.00;57.25;;;;;;;;;;5104278;28;20268;-48
2021/09/02 12:41:42;;;;;;;390.33;233.48;;;;;;;;;;5097178;28;20204;-49
2021/09/02 12:44:10;;;;;;;399.92;240.93;;;;;;;;;;5087994;28;20174;-48
2021/09/02 12:46:48;;;;;;;394.55;228.10;;;;;;;;;;5096709;28;20178;-46
2021/09/02 12:49:14;;;;;;;306.13;179.77;;;;;;;;;;5088586;28;20224;-46
2021/09/02 12:51:40;;;;;;;273.83;150.07;;;;;;;;;;5097134;28;20177;-47
2021/09/02 12:54:06;;;;;;;260.58;149.32;;;;;;;;;;5096508;28;20193;-47
2021/09/02 12:56:36;;;;;;;199.75;109.57;;;;;;;;;;5096484;28;20204;-46
2021/09/02 12:59:02;;;;;;;168.15;93.55;;;;;;;;;;5095285;28;20261;-47
2021/09/02 13:01:28;;;;;;;155.65;87.40;;;;;;;;;;5095935;28;20177;-47
2021/09/02 13:03:54;;;;;;;147.10;80.88;;;;;;;;;;5092614;28;20178;-46
2021/09/02 13:06:20;;;;;;;134.13;72.28;;;;;;;;;;5095935;28;20495;-46
2021/09/02 13:08:46;;;;;;;138.18;72.15;;;;;;;;;;5079831;28;20202;-47
2021/09/02 13:11:12;;;;;;;122.13;71.65;;;;;;;;;;5076526;28;20442;-47
2021/09/02 13:13:38;;;;;;;115.28;65.72;;;;;;;;;;5081817;28;20174;-47
2021/09/02 13:16:04;;;;;;;127.43;66.70;;;;;;;;;;5096379;28;20185;-46
2021/09/02 13:18:30;;;;;;;108.53;59.47;;;;;;;;;;5095358;28;20464;-47
2021/09/02 13:20:56;;;;;;;110.90;58.65;;;;;;;;;;5081830;28;20183;-47
2021/09/02 13:23:22;;;;;;;108.47;56.08;;;;;;;;;;5076348;28;20206;-47
2021/09/02 13:25:50;;;;;;;93.57;52.20;;;;;;;;;;5092543;28;20178;-47
2021/09/02 13:28:17;;;;;;;87.45;49.33;;;;;;;;;;5084360;28;20549;-47
2021/09/02 13:30:43;;;;;;;86.72;48.10;;;;;;;;;;5076164;28;20221;-47
2021/09/02 13:33:10;;;;;;;73.72;41.72;;;;;;;;;;5093984;28;20269;-46
2021/09/02 13:35:36;;;;;;;58.60;34.42;;;;;;;;;;5096114;28;20173;-47
2021/09/02 13:38:02;;;;;;;46.97;27.85;;;;;;;;;;5095241;28;20213;-47
2021/09/02 13:40:28;;;;;;;43.00;28.23;;;;;;;;;;5107827;28;20226;-47
2021/09/02 13:42:56;;;;;;;54.47;29.95;;;;;;;;;;5106522;28;20194;-47
2021/09/02 13:45:22;;;;;;;44.78;26.23;;;;;;;;;;5094558;28;20169;-46
2021/09/02 13:47:48;;;;;;;41.47;23.83;;;;;;;;;;5092113;28;20178;-47
2021/09/02 13:50:14;;;;;;;41.25;24.58;;;;;;;;;;5094882;28;20572;-47
2021/09/02 13:52:41;;;;;;;31.55;21.30;;;;;;;;;;5087561;28;20182;-47
2021/09/02 13:55:10;;;;;;;29.30;19.95;;;;;;;;;;5075129;28;20594;-47
2021/09/02 13:57:36;;;;;;;33.17;18.73;;;;;;;;;;5075045;28;20183;-47
2021/09/02 14:00:03;;;;;;;28.65;16.92;;;;;;;;;;5075539;28;20206;-47
2021/09/02 14:02:29;;;;;;;23.88;16.55;;;;;;;;;;5074664;28;20208;-47
2021/09/02 14:04:55;;;;;;;24.60;16.65;;;;;;;;;;5089166;28;20189;-47
2021/09/02 14:07:23;;;;;;;20.35;13.05;;;;;;;;;;5094607;28;20187;-47
2021/09/02 14:09:49;;;;;;;22.50;14.10;;;;;;;;;;5095172;28;20193;-48
2021/09/02 14:12:15;;;;;;;23.25;13.38;;;;;;;;;;5095249;28;20239;-47
2021/09/02 14:14:41;;;;;;;17.10;12.18;;;;;;;;;;5080933;28;20178;-47
2021/09/02 14:17:07;;;;;;;18.63;12.15;;;;;;;;;;5074681;28;20564;-47
2021/09/02 14:19:33;;;;;;;16.98;11.35;;;;;;;;;;5078029;28;20189;-47
2021/09/02 14:22:02;;;;;;;18.15;10.95;;;;;;;;;;5094785;28;20170;-47
2021/09/02 14:24:28;;;;;;;14.07;9.38;;;;;;;;;;5082881;28;20178;-47
2021/09/02 14:26:54;;;;;;;15.15;9.27;;;;;;;;;;5093226;28;20177;-47
2021/09/02 14:29:20;;;;;;;12.75;9.10;;;;;;;;;;5094204;28;20217;-47
2021/09/02 14:31:47;;;;;;;15.65;9.45;;;;;;;;;;5094535;28;20182;-47
2021/09/02 14:34:13;;;;;;;13.65;8.90;;;;;;;;;;5082726;28;20170;-47
2021/09/02 14:36:39;;;;;;;12.20;8.85;;;;;;;;;;5093978;28;20461;-47